Time;durP1;ratioP1;P1;durP2;ratioP2;P2;SDS_P1;SDS_P2;PMS_P1;PMS_P2;Temp;Humidity;BMP_temperature;BMP_pressure;BME280_temperature;BME280_humidity;BME280_pressure;Samples;Min_cycle;Max_cycle;Signal;HPM_P1;HPM_P2
2021/01/12 00:03:35;;;;;;;3.83;3.50;;;;;;;1.42;58.64;99746.25;10174688;29;20128;-67
2021/01/12 00:08:36;;;;;;;5.00;4.53;;;;;;;1.40;59.18;99734.16;10174123;29;20083;-67
2021/01/12 00:13:38;;;;;;;4.53;4.10;;;;;;;1.46;59.05;99721.19;10175633;29;20078;-68
2021/01/12 00:18:39;;;;;;;4.68;4.28;;;;;;;1.50;58.77;99716.00;10191095;29;20055;-68
2021/01/12 00:23:41;;;;;;;4.78;4.30;;;;;;;1.43;59.36;99691.00;10165245;29;20548;-68
2021/01/12 00:28:42;;;;;;;4.47;4.03;;;;;;;1.47;59.06;99676.31;10183769;29;20120;-68
2021/01/12 00:33:43;;;;;;;4.63;4.15;;;;;;;1.38;59.72;99677.19;10168020;29;20048;-67
2021/01/12 00:38:45;;;;;;;3.63;3.33;;;;;;;1.27;60.36;99674.59;10191807;29;20124;-68
2021/01/12 00:43:46;;;;;;;4.47;4.07;;;;;;;1.48;59.81;99668.53;10174788;29;20077;-68
2021/01/12 00:48:47;;;;;;;4.95;4.45;;;;;;;1.54;59.85;99661.63;10174852;29;20045;-68
2021/01/12 00:53:48;;;;;;;5.38;4.57;;;;;;;1.59;59.97;99654.72;10174229;29;20392;-68
2021/01/12 00:59:00;;;;;;;5.72;5.00;;;;;;;1.57;60.34;99639.19;10173435;29;20059;-67
2021/01/12 01:04:03;;;;;;;5.20;4.70;;;;;;;1.66;60.43;99638.28;10174438;29;20048;-68
2021/01/12 01:09:04;;;;;;;5.28;4.78;;;;;;;1.76;60.53;99620.13;10174636;29;20067;-67
2021/01/12 01:14:06;;;;;;;7.07;4.85;;;;;;;1.93;60.17;99614.88;10175068;29;20352;-67
2021/01/12 01:19:07;;;;;;;4.85;4.35;;;;;;;1.96;60.33;99612.28;10182140;29;20438;-67
2021/01/12 01:24:11;;;;;;;3.92;3.63;;;;;;;1.90;60.92;99596.75;10180964;29;20040;-67
2021/01/12 01:29:12;;;;;;;4.53;3.90;;;;;;;2.09;60.59;99583.75;10182522;29;20086;-67
2021/01/12 01:34:13;;;;;;;5.13;4.30;;;;;;;2.16;60.79;99567.25;10181147;29;20044;-67
2021/01/12 01:39:14;;;;;;;4.57;4.18;;;;;;;2.06;61.24;99563.00;10180641;29;20052;-68
2021/01/12 01:44:16;;;;;;;5.32;4.63;;;;;;;2.18;60.95;99542.19;10179691;29;20050;-68
2021/01/12 01:49:17;;;;;;;5.15;4.65;;;;;;;2.22;61.28;99549.94;10179205;29;20052;-68
2021/01/12 01:54:19;;;;;;;4.18;3.88;;;;;;;2.26;61.39;99530.06;10180021;29;20044;-67
2021/01/12 01:59:20;;;;;;;4.13;3.72;;;;;;;2.30;61.24;99516.16;10194243;29;20048;-68
2021/01/12 02:04:32;;;;;;;4.50;4.10;;;;;;;2.25;61.39;99507.56;10179480;29;20518;-68
2021/01/12 02:09:42;;;;;;;4.20;3.25;;;;;;;2.42;60.96;99492.75;10180454;29;20097;-67
2021/01/12 02:14:46;;;;;;;3.78;3.40;;;;;;;2.29;61.52;99483.34;10180074;29;20076;-68
2021/01/12 02:19:52;;;;;;;5.38;4.30;;;;;;;2.33;61.63;99476.41;10179821;29;20071;-67
2021/01/12 02:24:55;;;;;;;3.55;3.25;;;;;;;2.16;62.18;99471.31;10179390;29;20051;-68
2021/01/12 02:29:56;;;;;;;3.90;3.50;;;;;;;2.44;61.55;99459.88;10178050;29;20052;-67
2021/01/12 02:35:00;;;;;;;4.88;3.92;;;;;;;2.62;60.96;99451.09;10178400;29;20044;-68
2021/01/12 02:40:01;;;;;;;4.25;3.85;;;;;;;2.50;61.43;99439.06;10178327;29;20048;-68
2021/01/12 02:45:03;;;;;;;4.95;3.50;;;;;;;2.50;61.70;99430.44;10193662;23;20107;-68
2021/01/12 02:50:06;;;;;;;4.22;3.70;;;;;;;2.71;61.30;99409.47;10182922;29;20051;-68
2021/01/12 02:55:13;;;;;;;4.70;4.15;;;;;;;2.82;61.09;99408.50;10183458;29;20485;-68
2021/01/12 03:00:15;;;;;;;4.50;4.07;;;;;;;2.82;61.09;99387.72;10182790;29;20044;-69
2021/01/12 03:05:16;;;;;;;4.53;4.10;;;;;;;3.00;60.55;99380.59;10181066;29;20427;-68
2021/01/12 03:10:18;;;;;;;4.00;3.60;;;;;;;2.98;60.79;99366.78;10181143;29;20059;-69
2021/01/12 03:15:19;;;;;;;4.32;3.72;;;;;;;3.01;60.80;99356.38;10180894;29;20036;-68
2021/01/12 03:20:20;;;;;;;3.92;3.60;;;;;;;2.92;60.90;99351.28;10181067;29;20494;-68
2021/01/12 03:25:21;;;;;;;5.32;4.07;;;;;;;3.04;60.79;99348.53;10181096;29;20055;-68
2021/01/12 03:30:23;;;;;;;3.90;3.60;;;;;;;2.88;61.08;99344.41;10164130;29;20063;-67
2021/01/12 03:35:24;;;;;;;4.65;3.97;;;;;;;3.02;60.84;99346.84;10179931;29;20048;-69
2021/01/12 03:40:26;;;;;;;4.78;4.38;;;;;;;2.84;61.48;99345.31;10179540;29;20048;-69
2021/01/12 03:45:28;;;;;;;5.13;4.63;;;;;;;3.00;61.16;99328.66;10180209;29;20084;-68
2021/01/12 03:50:29;;;;;;;5.18;4.68;;;;;;;2.85;61.27;99321.09;10181144;29;20048;-67
2021/01/12 03:55:31;;;;;;;5.07;4.60;;;;;;;2.81;61.77;99326.31;10181339;29;20082;-69
2021/01/12 04:00:32;;;;;;;5.00;4.38;;;;;;;2.76;61.98;99314.25;10181155;29;20052;-69
2021/01/12 04:05:34;;;;;;;6.10;5.50;;;;;;;2.88;62.03;99312.38;10178802;29;20040;-69
2021/01/12 04:10:36;;;;;;;5.32;4.82;;;;;;;2.87;62.14;99298.53;10177926;29;20056;-69
2021/01/12 04:15:37;;;;;;;5.88;5.28;;;;;;;2.86;63.03;99315.00;10179065;29;20494;-67
2021/01/12 04:20:39;;;;;;;7.38;6.68;;;;;;;2.44;66.53;99303.41;10178624;29;20497;-67
2021/01/12 04:25:40;;;;;;;7.60;6.80;;;;;;;2.17;68.83;99300.19;10177381;29;20044;-66
2021/01/12 04:30:41;;;;;;;8.23;7.43;;;;;;;2.21;69.32;99293.22;10176419;29;20066;-66
2021/01/12 04:35:43;;;;;;;9.02;8.23;;;;;;;1.97;69.99;99287.41;10176836;29;20036;-67
2021/01/12 04:40:44;;;;;;;8.88;8.07;;;;;;;1.85;70.20;99284.06;10176659;29;20108;-66
2021/01/12 04:45:45;;;;;;;8.93;8.00;;;;;;;1.80;70.66;99278.91;10176211;29;20072;-66
2021/01/12 04:50:46;;;;;;;10.48;9.38;;;;;;;1.85;71.41;99263.34;10178833;29;20048;-66
2021/01/12 04:55:47;;;;;;;11.00;9.50;;;;;;;1.74;71.82;99259.13;10183210;29;20048;-65
2021/01/12 05:00:57;;;;;;;10.82;9.82;;;;;;;1.70;71.71;99251.38;10182975;29;20569;-68
2021/01/12 05:05:58;;;;;;;21.10;18.60;;;;;;;1.20;70.76;99240.53;10184698;29;20469;-67
2021/01/12 05:11:00;;;;;;;27.20;20.38;;;;;;;0.82;71.80;99239.91;10183165;29;20470;-66
2021/01/12 05:16:07;;;;;;;24.25;18.10;;;;;;;0.43;74.47;99229.72;10182594;29;20047;-66
2021/01/12 05:21:12;;;;;;;25.77;17.85;;;;;;;0.65;74.43;99227.91;10183447;29;20040;-66
2021/01/12 05:26:16;;;;;;;25.23;19.45;;;;;;;0.63;74.33;99231.38;10182598;29;20123;-67
2021/01/12 05:31:21;;;;;;;34.20;23.77;;;;;;;0.29;73.72;99222.88;10183073;29;20048;-66
2021/01/12 05:36:23;;;;;;;42.92;26.27;;;;;;;-0.11;74.66;99215.25;10183426;29;20048;-67
2021/01/12 05:41:26;;;;;;;41.65;25.50;;;;;;;0.06;74.30;99205.72;10182076;29;20052;-67
2021/01/12 05:46:28;;;;;;;35.28;24.95;;;;;;;-0.16;74.43;99198.91;10182871;29;20418;-67
2021/01/12 05:51:39;;;;;;;46.70;26.75;;;;;;;-0.10;74.80;99194.56;10182456;29;20099;-66
2021/01/12 05:56:42;;;;;;;48.20;27.75;;;;;;;-0.43;75.50;99199.81;10183200;29;20048;-66
2021/01/12 06:01:50;;;;;;;50.80;26.05;;;;;;;-0.17;75.14;99177.38;10180733;29;20047;-67
2021/01/12 06:06:54;;;;;;;49.28;26.35;;;;;;;-0.30;75.23;99178.28;10181507;29;20054;-65
2021/01/12 06:11:57;;;;;;;58.83;27.23;;;;;;;-0.39;76.25;99170.53;10181197;29;20510;-66
2021/01/12 06:17:01;;;;;;;59.08;29.73;;;;;;;-0.35;75.78;99162.78;10181891;29;20084;-66
2021/01/12 06:22:13;;;;;;;55.97;28.25;;;;;;;-0.34;75.91;99156.75;10181345;29;20479;-67
2021/01/12 06:27:20;;;;;;;61.55;29.25;;;;;;;-0.39;75.86;99158.50;10180120;29;20044;-66
2021/01/12 06:32:23;;;;;;;51.97;27.02;;;;;;;-0.09;75.52;99142.06;10181126;29;20048;-65
2021/01/12 06:37:25;;;;;;;50.22;27.77;;;;;;;-0.07;74.88;99142.91;10180849;29;20052;-65
2021/01/12 06:42:28;;;;;;;47.65;27.45;;;;;;;-0.10;75.29;99134.28;10180719;29;20569;-65
2021/01/12 06:47:32;;;;;;;53.85;26.95;;;;;;;-0.04;75.13;99127.41;10179851;29;20414;-65
2021/01/12 06:52:47;;;;;;;47.30;26.48;;;;;;;-0.03;75.17;99115.34;10179438;29;20048;-67
2021/01/12 06:57:50;;;;;;;45.92;25.33;;;;;;;-0.06;75.93;99112.75;10179675;29;20406;-67
2021/01/12 07:02:56;;;;;;;16.55;13.60;;;;;;;0.21;76.71;99097.13;10179631;29;20052;-66
2021/01/12 07:07:59;;;;;;;8.50;7.75;;;;;;;0.61;76.69;99104.66;10179119;29;20040;-64
2021/01/12 07:13:06;;;;;;;7.03;5.85;;;;;;;1.08;75.28;99093.09;10180489;29;20054;-65
2021/01/12 07:18:08;;;;;;;6.57;5.87;;;;;;;1.00;75.56;99085.38;10181237;29;20476;-66
2021/01/12 07:23:11;;;;;;;6.72;6.13;;;;;;;1.31;74.59;99079.94;10180048;29;20058;-66
2021/01/12 07:28:21;;;;;;;5.55;5.05;;;;;;;1.19;74.82;99075.72;10181643;29;20048;-66
2021/01/12 07:33:23;;;;;;;5.63;5.10;;;;;;;1.12;75.37;99071.50;10181488;29;20103;-66
2021/01/12 07:38:29;;;;;;;5.70;5.20;;;;;;;1.41;74.48;99070.34;10183042;29;20406;-67
2021/01/12 07:43:32;;;;;;;5.60;5.10;;;;;;;1.34;75.27;99063.53;10186190;29;20044;-67
2021/01/12 07:48:38;;;;;;;6.30;5.78;;;;;;;1.34;75.06;99051.44;10181045;29;20071;-66
2021/01/12 07:53:41;;;;;;;5.82;5.05;;;;;;;1.51;74.81;99049.53;10180907;29;20051;-67
2021/01/12 07:58:43;;;;;;;6.32;5.03;;;;;;;1.38;74.72;99036.72;10184334;29;20096;-67
2021/01/12 08:03:46;;;;;;;4.20;3.80;;;;;;;1.42;74.48;99033.22;10181936;29;20040;-67
2021/01/12 08:08:57;;;;;;;4.72;4.32;;;;;;;1.49;74.68;99021.91;10179292;29;20044;-65
2021/01/12 08:14:07;;;;;;;4.15;3.75;;;;;;;1.58;74.46;99021.81;10180087;29;20040;-67
2021/01/12 08:19:09;;;;;;;3.35;3.05;;;;;;;1.59;74.69;99005.38;10179644;29;20048;-67
2021/01/12 08:24:11;;;;;;;3.65;3.35;;;;;;;1.62;74.64;99001.91;10180541;29;20044;-67
2021/01/12 08:29:13;;;;;;;3.10;2.80;;;;;;;1.65;74.34;98992.38;10188156;29;20048;-66
2021/01/12 08:34:20;;;;;;;2.83;2.58;;;;;;;1.56;74.73;98987.31;10187562;29;20048;-66
2021/01/12 08:39:24;;;;;;;4.80;2.97;;;;;;;1.56;74.64;98983.88;10188831;29;20052;-67
2021/01/12 08:44:33;;;;;;;2.58;2.38;;;;;;;1.55;74.94;98976.94;10199508;23;20428;-67
2021/01/12 08:49:35;;;;;;;2.35;2.13;;;;;;;1.50;74.79;98962.31;10181959;29;20149;-67
2021/01/12 08:54:37;;;;;;;3.35;2.40;;;;;;;1.59;74.75;98963.09;10182451;29;20044;-67
2021/01/12 08:59:38;;;;;;;2.47;1.90;;;;;;;1.53;75.23;98958.84;10180249;29;20060;-68
2021/01/12 09:04:39;;;;;;;2.17;1.98;;;;;;;1.66;74.91;98954.38;10181244;29;20107;-67
2021/01/12 09:09:50;;;;;;;1.83;1.58;;;;;;;1.76;74.48;98946.44;10180633;29;20530;-67
2021/01/12 09:14:52;;;;;;;2.10;1.90;;;;;;;1.77;74.90;98936.94;10180467;29;20132;-66
2021/01/12 09:19:53;;;;;;;2.75;2.30;;;;;;;1.78;74.61;98933.47;10177157;29;20119;-67
2021/01/12 09:24:55;;;;;;;1.90;1.77;;;;;;;1.64;74.67;98933.69;10180247;29;20132;-67
2021/01/12 09:29:56;;;;;;;3.17;2.45;;;;;;;1.83;74.59;98929.09;10181591;29;20108;-66
2021/01/12 09:34:58;;;;;;;2.38;1.83;;;;;;;1.89;74.02;98925.53;10182451;29;20063;-67
2021/01/12 09:40:01;;;;;;;2.65;2.08;;;;;;;1.89;74.24;98931.59;10179179;29;20127;-67
2021/01/12 09:45:02;;;;;;;2.58;1.92;;;;;;;1.98;73.67;98920.22;10178786;29;20036;-67
2021/01/12 09:50:05;;;;;;;1.80;1.70;;;;;;;2.01;73.46;98909.81;10179213;29;20052;-67
2021/01/12 09:55:08;;;;;;;2.47;1.70;;;;;;;1.99;73.88;98898.59;10182985;29;20063;-67
2021/01/12 10:00:10;;;;;;;2.38;1.65;;;;;;;1.92;74.05;98899.59;10178552;29;20044;-67
2021/01/12 10:05:14;;;;;;;2.15;1.52;;;;;;;2.13;73.21;98885.47;10179485;29;20092;-65
2021/01/12 10:10:15;;;;;;;1.83;1.42;;;;;;;2.08;73.32;98879.47;10178494;29;20044;-66
2021/01/12 10:15:16;;;;;;;2.15;1.40;;;;;;;2.13;73.27;98870.75;10178243;29;20044;-67
2021/01/12 10:20:17;;;;;;;2.00;1.52;;;;;;;2.20;72.55;98864.56;10178305;29;20044;-67
2021/01/12 10:25:18;;;;;;;1.83;1.25;;;;;;;2.25;72.85;98854.97;10157334;29;20058;-67
2021/01/12 10:30:20;;;;;;;1.30;1.15;;;;;;;2.21;73.35;98847.28;10142284;29;20117;-66
2021/01/12 10:35:22;;;;;;;1.75;1.00;;;;;;;2.36;72.66;98846.16;10142462;29;20430;-67
2021/01/12 10:40:24;;;;;;;1.10;1.00;;;;;;;2.30;73.15;98833.28;10143562;29;20081;-66
2021/01/12 10:45:27;;;;;;;1.08;0.90;;;;;;;2.35;72.37;98831.50;10138785;29;20096;-67
2021/01/12 10:50:28;;;;;;;1.15;0.80;;;;;;;2.34;72.90;98824.56;10137909;29;20048;-67
2021/01/12 10:55:29;;;;;;;1.05;0.82;;;;;;;2.29;73.25;98816.88;10138584;29;20052;-67
2021/01/12 11:00:39;;;;;;;1.58;0.70;;;;;;;2.31;73.27;98817.72;10152275;29;20137;-69
2021/01/12 11:05:46;;;;;;;0.60;0.50;;;;;;;2.38;72.66;98805.50;10144359;29;20052;-68
2021/01/12 11:10:47;;;;;;;1.67;0.60;;;;;;;2.38;72.50;98780.41;10137850;29;20048;-67
2021/01/12 11:15:49;;;;;;;0.77;0.50;;;;;;;2.38;72.51;98776.97;10137325;29;20131;-68
2021/01/12 11:20:51;;;;;;;0.60;0.50;;;;;;;2.37;72.44;98760.56;10148038;29;20040;-66
2021/01/12 11:25:52;;;;;;;0.50;0.40;;;;;;;2.41;72.27;98751.84;10137582;29;20055;-66
2021/01/12 11:30:54;;;;;;;0.60;0.40;;;;;;;2.46;72.44;98749.16;10137164;29;20074;-68
2021/01/12 11:35:55;;;;;;;0.32;0.32;;;;;;;2.47;71.92;98740.47;10170233;29;20127;-67
2021/01/12 11:41:10;;;;;;;2.15;0.80;;;;;;;2.53;72.17;98738.63;10172632;29;20112;-66
2021/01/12 11:46:11;;;;;;;0.40;0.40;;;;;;;2.56;71.59;98729.91;10173380;29;20044;-67
2021/01/12 11:51:12;;;;;;;0.75;0.50;;;;;;;2.71;71.08;98728.75;10174773;29;20052;-66
2021/01/12 11:56:13;;;;;;;0.85;0.50;;;;;;;2.81;70.89;98714.69;10175725;29;20086;-66
2021/01/12 12:01:15;;;;;;;0.60;0.40;;;;;;;2.87;69.86;98700.72;10173733;29;20052;-68
2021/01/12 12:06:16;;;;;;;0.50;0.40;;;;;;;2.93;69.64;98695.41;10175969;29;20139;-66
2021/01/12 12:11:17;;;;;;;0.50;0.50;;;;;;;2.95;69.12;98686.69;10174953;29;20054;-67
2021/01/12 12:16:19;;;;;;;0.95;0.50;;;;;;;2.89;69.86;98684.25;10174904;29;20082;-65
2021/01/12 12:21:21;;;;;;;1.30;0.50;;;;;;;2.90;69.55;98680.75;10174756;29;20048;-66
2021/01/12 12:26:22;;;;;;;0.40;0.40;;;;;;;2.93;68.98;98667.72;10170166;29;20067;-65
2021/01/12 12:31:24;;;;;;;0.52;0.47;;;;;;;2.89;69.22;98668.66;10173699;29;20492;-65
2021/01/12 12:36:25;;;;;;;0.50;0.50;;;;;;;2.85;69.33;98674.81;10173959;29;20043;-68
2021/01/12 12:41:31;;;;;;;0.55;0.50;;;;;;;2.76;69.66;98662.91;10173608;29;20127;-66
2021/01/12 12:46:32;;;;;;;0.40;0.40;;;;;;;2.88;69.44;98661.78;10173780;29;20048;-68
2021/01/12 12:51:34;;;;;;;2.65;1.20;;;;;;;2.89;69.20;98655.69;10174066;29;20120;-67
2021/01/12 12:56:35;;;;;;;0.50;0.40;;;;;;;2.86;69.40;98662.69;10172329;29;20044;-66
2021/01/12 13:01:36;;;;;;;0.30;0.30;;;;;;;2.89;69.36;98647.06;10173064;29;20048;-68
2021/01/12 13:06:38;;;;;;;0.57;0.57;;;;;;;2.85;70.28;98656.66;10174672;29;20050;-67
2021/01/12 13:11:43;;;;;;;0.88;0.70;;;;;;;2.77;70.62;98654.22;10177715;29;20118;-66
2021/01/12 13:16:46;;;;;;;3.25;0.52;;;;;;;2.82;70.36;98651.53;10182152;29;20409;-66
2021/01/12 13:21:47;;;;;;;0.88;0.77;;;;;;;2.71;70.72;98653.53;10180866;29;20083;-67
2021/01/12 13:27:06;;;;;;;;;;;;;;;2.73;70.25;98654.31;10186352;29;20063;-67
2021/01/12 13:32:09;;;;;;;0.77;0.50;;;;;;;2.72;71.29;98658.66;10179990;29;20424;-67
2021/01/12 13:37:11;;;;;;;0.40;0.40;;;;;;;2.65;70.69;98664.00;10181006;29;20048;-68
2021/01/12 13:42:15;;;;;;;0.95;0.60;;;;;;;2.63;71.11;98661.47;10179658;29;20040;-66
2021/01/12 13:47:17;;;;;;;0.80;0.65;;;;;;;2.58;71.34;98668.50;10179847;29;20044;-67
2021/01/12 13:52:19;;;;;;;0.75;0.40;;;;;;;2.50;71.66;98662.59;10162559;29;20063;-67
2021/01/12 13:57:28;;;;;;;0.60;0.50;;;;;;;2.48;71.61;98661.81;10179499;29;20051;-66
2021/01/12 14:02:30;;;;;;;0.85;0.57;;;;;;;2.56;71.46;98667.66;10179227;29;20418;-66
2021/01/12 14:07:31;;;;;;;0.60;0.60;;;;;;;2.57;71.59;98676.28;10179038;29;20062;-66
2021/01/12 14:12:33;;;;;;;0.63;0.52;;;;;;;2.55;71.46;98676.34;10180760;29;20052;-67
2021/01/12 14:17:45;;;;;;;1.42;0.57;;;;;;;2.58;71.22;98660.72;10179793;29;20403;-66
2021/01/12 14:22:49;;;;;;;1.48;0.47;;;;;;;2.65;70.88;98671.78;10178511;29;20087;-67
2021/01/12 14:27:54;;;;;;;1.48;0.50;;;;;;;2.63;70.95;98673.59;10177981;29;20040;-66
2021/01/12 14:32:56;;;;;;;1.40;0.40;;;;;;;2.63;71.06;98681.38;10179159;29;20119;-67
2021/01/12 14:38:03;;;;;;;0.82;0.68;;;;;;;2.59;71.50;98692.69;10179084;29;20068;-67
2021/01/12 14:43:05;;;;;;;2.20;0.50;;;;;;;2.52;71.94;98694.53;10178521;29;20387;-68
2021/01/12 14:48:06;;;;;;;0.60;0.60;;;;;;;2.52;72.09;98699.72;10193430;23;20070;-66
2021/01/12 14:53:10;;;;;;;1.17;0.52;;;;;;;2.38;72.94;98712.13;10180016;29;20060;-65
2021/01/12 14:58:12;;;;;;;1.05;0.57;;;;;;;2.28;73.17;98701.94;10179385;29;20471;-65
2021/01/12 15:03:13;;;;;;;0.57;0.52;;;;;;;2.16;74.00;98712.53;10178406;29;20044;-66
2021/01/12 15:08:14;;;;;;;4.50;0.82;;;;;;;2.11;74.16;98718.69;10178497;29;20052;-66
2021/01/12 15:13:15;;;;;;;1.17;0.68;;;;;;;2.15;74.02;98717.78;10180377;29;20054;-65
2021/01/12 15:18:17;;;;;;;3.78;0.70;;;;;;;2.20;73.37;98713.34;10180046;29;20548;-66
2021/01/12 15:23:18;;;;;;;0.65;0.65;;;;;;;2.17;73.23;98723.75;10178758;29;20139;-67
2021/01/12 15:28:19;;;;;;;1.42;0.80;;;;;;;2.19;73.64;98724.59;10180194;29;20062;-65
2021/01/12 15:33:21;;;;;;;0.70;0.60;;;;;;;2.16;73.24;98741.06;10176078;29;20066;-66
2021/01/12 15:38:24;;;;;;;1.10;0.77;;;;;;;2.13;73.33;98746.31;10174278;29;20094;-66
2021/01/12 15:43:25;;;;;;;1.63;0.90;;;;;;;2.12;73.01;98739.41;10176267;29;20056;-65
2021/01/12 15:48:27;;;;;;;1.73;0.90;;;;;;;2.16;73.20;98750.56;10180337;29;20055;-66
2021/01/12 15:53:28;;;;;;;1.42;0.80;;;;;;;2.14;73.23;98760.13;10180650;29;20520;-65
2021/01/12 15:58:30;;;;;;;1.08;0.93;;;;;;;2.11;73.36;98757.59;10181354;29;20044;-66
2021/01/12 16:03:32;;;;;;;1.25;0.90;;;;;;;2.02;73.66;98764.63;10179047;29;20090;-66
2021/01/12 16:08:35;;;;;;;1.08;0.88;;;;;;;1.99;73.71;98780.25;10180349;29;20043;-66
2021/01/12 16:13:37;;;;;;;1.42;0.70;;;;;;;1.89;74.33;98798.56;10178709;29;20477;-66
2021/01/12 16:18:39;;;;;;;1.17;0.70;;;;;;;1.88;74.50;98802.91;10174672;29;20044;-66
2021/01/12 16:23:42;;;;;;;0.77;0.77;;;;;;;1.90;74.42;98814.09;10174938;29;20536;-65
2021/01/12 16:28:45;;;;;;;0.95;0.70;;;;;;;1.74;75.05;98823.00;10177458;29;20048;-66
2021/01/12 16:33:51;;;;;;;1.15;1.05;;;;;;;1.77;74.48;98841.06;10176098;29;20052;-65
2021/01/12 16:38:55;;;;;;;0.80;0.80;;;;;;;1.70;74.76;98855.88;10175272;29;20469;-66
2021/01/12 16:44:07;;;;;;;1.38;1.10;;;;;;;1.55;74.88;98858.69;10174026;29;20059;-67
2021/01/12 16:49:32;;;;;;;1.20;1.00;;;;;;;1.46;74.98;98864.84;10179571;29;20064;-66
2021/01/12 16:54:36;;;;;;;2.95;1.35;;;;;;;1.48;75.23;98878.63;10179159;29;20139;-66
2021/01/12 16:59:55;;;;;;;1.55;1.40;;;;;;;1.38;75.41;98902.94;10182576;29;20052;-65
2021/01/12 17:05:00;;;;;;;1.88;1.52;;;;;;;1.46;75.32;98895.94;10182333;29;20063;-65
2021/01/12 17:10:05;;;;;;;1.50;1.35;;;;;;;1.35;74.65;98902.97;10184603;29;20518;-67
2021/01/12 17:15:12;;;;;;;1.90;1.50;;;;;;;1.49;73.90;98906.22;10185154;29;20066;-66
2021/01/12 17:20:19;;;;;;;3.00;1.55;;;;;;;1.36;74.06;98915.03;10185847;29;20060;-65
2021/01/12 17:25:24;;;;;;;3.80;1.33;;;;;;;1.41;73.45;98926.19;10183099;29;20052;-65
2021/01/12 17:30:32;;;;;;;1.55;1.40;;;;;;;1.26;73.78;98931.56;10181250;29;20115;-66
2021/01/12 17:35:40;;;;;;;3.38;1.77;;;;;;;1.41;72.94;98933.09;10182427;29;20060;-66
2021/01/12 17:40:45;;;;;;;3.67;1.85;;;;;;;1.28;72.96;98945.31;10182906;29;20048;-64
2021/01/12 17:46:10;;;;;;;3.72;1.60;;;;;;;1.35;72.66;98957.34;10176850;29;20056;-66
2021/01/12 17:51:19;;;;;;;5.32;1.95;;;;;;;1.18;72.80;98967.88;10181145;29;20060;-66
2021/01/12 17:56:21;;;;;;;4.50;1.52;;;;;;;1.34;71.95;98970.31;10180351;29;20048;-66
2021/01/12 18:01:23;;;;;;;2.65;1.60;;;;;;;1.05;72.41;98991.31;10184821;29;20427;-65
2021/01/12 18:06:26;;;;;;;3.80;1.50;;;;;;;1.07;72.05;99000.81;10186789;29;20044;-67
2021/01/12 18:11:29;;;;;;;3.75;1.95;;;;;;;1.03;72.22;99008.63;10186385;29;20048;-65
2021/01/12 18:16:35;;;;;;;;;;;;;;;1.01;72.34;99017.22;10185352;29;20104;-66
2021/01/12 18:21:40;;;;;;;2.80;1.83;;;;;;;0.81;72.52;99026.91;10182927;29;19996;-66
2021/01/12 18:26:46;;;;;;;5.15;2.33;;;;;;;0.98;72.27;99029.34;10184110;29;20048;-66
2021/01/12 18:31:50;;;;;;;2.97;1.60;;;;;;;0.99;71.87;99036.25;10185283;29;20044;-66
2021/01/12 18:37:01;;;;;;;3.08;1.83;;;;;;;0.90;72.34;99046.69;10186023;29;20048;-66
2021/01/12 18:42:23;;;;;;;5.68;1.77;;;;;;;0.87;72.10;99049.28;10173118;29;20528;-65
2021/01/12 18:47:33;;;;;;;4.00;1.48;;;;;;;0.79;72.36;99062.28;10187340;29;20052;-65
2021/01/12 18:52:40;;;;;;;1.85;1.45;;;;;;;0.83;72.19;99070.88;10185135;29;20096;-66
2021/01/12 18:57:44;;;;;;;3.95;1.55;;;;;;;0.86;71.58;99066.53;10179162;29;20142;-64
2021/01/12 19:02:58;;;;;;;4.38;1.48;;;;;;;0.80;71.35;99076.06;10178430;29;20048;-66
2021/01/12 19:08:01;;;;;;;3.58;1.30;;;;;;;0.74;71.23;99076.97;10179204;29;20036;-67
2021/01/12 19:13:03;;;;;;;7.38;1.92;;;;;;;0.78;71.62;99080.41;10179203;29;20048;-67
2021/01/12 19:18:06;;;;;;;3.97;1.77;;;;;;;0.63;71.64;99081.38;10178732;29;20115;-66
2021/01/12 19:23:08;;;;;;;9.75;1.98;;;;;;;0.73;71.64;99076.13;10178770;29;20059;-66
2021/01/12 19:28:09;;;;;;;4.80;2.33;;;;;;;0.67;72.09;99090.84;10178912;29;20549;-66
2021/01/12 19:33:16;;;;;;;4.28;2.25;;;;;;;0.79;71.62;99095.03;10177986;29;20040;-66
2021/01/12 19:38:21;;;;;;;4.30;2.25;;;;;;;0.83;71.49;99096.75;10163143;29;20104;-66
2021/01/12 19:43:24;;;;;;;4.85;2.33;;;;;;;0.94;71.37;99097.53;10178805;29;20076;-67
2021/01/12 19:48:28;;;;;;;3.15;2.28;;;;;;;0.97;71.60;99087.13;10177696;29;20079;-68
2021/01/12 19:53:31;;;;;;;3.63;2.10;;;;;;;1.00;71.54;99090.56;10178457;29;20095;-66
2021/01/12 19:58:33;;;;;;;4.32;2.30;;;;;;;1.14;71.14;99097.34;10178587;29;20067;-67
2021/01/12 20:03:41;;;;;;;4.38;1.98;;;;;;;1.19;71.17;99103.34;10177197;29;20052;-65
2021/01/12 20:08:43;;;;;;;3.95;2.90;;;;;;;1.14;71.72;99108.56;10177588;29;20051;-66
2021/01/12 20:13:44;;;;;;;3.75;2.25;;;;;;;1.12;72.53;99105.13;10177828;29;20454;-66
2021/01/12 20:18:48;;;;;;;6.97;2.92;;;;;;;0.95;73.51;99107.00;10178054;29;20491;-67
2021/01/12 20:24:02;;;;;;;5.25;2.30;;;;;;;1.06;74.03;99105.16;10177382;29;20040;-66
2021/01/12 20:29:03;;;;;;;4.45;2.80;;;;;;;1.00;74.57;99111.25;10178542;29;20076;-67
2021/01/12 20:34:13;;;;;;;5.35;3.22;;;;;;;0.96;74.43;99122.50;10177473;29;20052;-66
2021/01/12 20:39:15;;;;;;;3.67;2.70;;;;;;;1.19;74.17;99134.41;10177363;29;20052;-66
2021/01/12 20:44:20;;;;;;;3.90;3.03;;;;;;;1.23;73.71;99144.72;10177950;29;20459;-67
2021/01/12 20:49:22;;;;;;;6.15;2.20;;;;;;;1.34;73.18;99146.38;10189262;23;20040;-66
2021/01/12 20:54:24;;;;;;;4.32;2.63;;;;;;;1.30;72.59;99140.34;10175982;29;20048;-67
2021/01/12 20:59:26;;;;;;;4.85;2.92;;;;;;;1.34;72.33;99177.44;10176220;29;20048;-65
2021/01/12 21:04:27;;;;;;;2.97;2.20;;;;;;;1.48;71.48;99183.34;10174274;29;20417;-63
2021/01/12 21:09:28;;;;;;;4.10;2.78;;;;;;;1.35;71.48;99190.38;10176052;29;20052;-66
2021/01/12 21:14:29;;;;;;;3.08;2.60;;;;;;;1.35;71.40;99198.13;10174123;29;20447;-64
2021/01/12 21:19:30;;;;;;;3.13;2.10;;;;;;;1.56;69.81;99197.09;10174300;29;20422;-64
2021/01/12 21:24:32;;;;;;;2.22;1.77;;;;;;;1.56;69.43;99186.75;10173905;29;20058;-64
2021/01/12 21:29:33;;;;;;;2.80;1.70;;;;;;;1.45;69.63;99197.19;10175779;29;20055;-64
2021/01/12 21:34:35;;;;;;;2.60;1.77;;;;;;;1.30;69.24;99204.22;10181544;29;20398;-64
2021/01/12 21:39:36;;;;;;;4.10;1.55;;;;;;;1.20;69.48;99222.41;10182570;29;20048;-64
2021/01/12 21:44:37;;;;;;;3.33;1.67;;;;;;;1.11;69.46;99217.31;10186010;29;20048;-65
2021/01/12 21:49:39;;;;;;;3.30;1.90;;;;;;;1.05;69.42;99237.19;10181398;29;20052;-65
2021/01/12 21:54:42;;;;;;;3.03;1.30;;;;;;;0.93;69.33;99245.88;10181223;29;20048;-64
2021/01/12 21:59:43;;;;;;;4.60;1.23;;;;;;;0.96;68.85;99259.66;10180494;29;20128;-65
2021/01/12 22:04:44;;;;;;;3.10;1.17;;;;;;;0.84;69.04;99272.69;10181060;29;20079;-64
2021/01/12 22:09:46;;;;;;;10.07;1.50;;;;;;;0.86;68.92;99285.59;10181158;29;20590;-65
2021/01/12 22:14:47;;;;;;;3.42;1.20;;;;;;;1.04;68.64;99288.09;10180683;29;20044;-65
2021/01/12 22:19:48;;;;;;;3.47;1.88;;;;;;;1.09;68.56;99304.44;10180001;29;20054;-66
2021/01/12 22:24:49;;;;;;;2.35;1.10;;;;;;;1.12;68.99;99313.94;10179563;29;20044;-65
2021/01/12 22:29:50;;;;;;;2.55;1.10;;;;;;;1.09;69.20;99316.53;10179457;29;20095;-64
2021/01/12 22:34:52;;;;;;;6.43;1.33;;;;;;;1.20;68.46;99307.00;10178717;29;20082;-65
2021/01/12 22:39:53;;;;;;;3.33;1.20;;;;;;;1.10;68.81;99321.69;10179156;29;20064;-65
2021/01/12 22:44:54;;;;;;;2.90;1.20;;;;;;;1.16;68.59;99319.09;10178319;29;20078;-64
2021/01/12 22:49:55;;;;;;;6.80;2.10;;;;;;;1.07;68.93;99332.06;10178640;29;20107;-64
2021/01/12 22:54:56;;;;;;;5.70;1.70;;;;;;;1.14;69.00;99331.16;10178376;29;20054;-64
2021/01/12 22:59:57;;;;;;;3.97;1.45;;;;;;;1.14;69.17;99332.91;10178028;29;20498;-65
2021/01/12 23:04:59;;;;;;;5.78;2.03;;;;;;;1.08;69.42;99345.88;10178796;29;20510;-64
2021/01/12 23:10:00;;;;;;;4.68;1.92;;;;;;;1.33;68.55;99338.81;10178101;29;20047;-64
2021/01/12 23:15:02;;;;;;;3.80;1.75;;;;;;;1.29;68.76;99350.09;10178029;29;20049;-64
2021/01/12 23:20:10;;;;;;;4.97;1.50;;;;;;;1.33;68.74;99350.06;10176798;29;20163;-64
2021/01/12 23:25:12;;;;;;;3.55;1.30;;;;;;;1.33;68.15;99355.25;10177024;29;20566;-65
2021/01/12 23:30:17;;;;;;;2.55;1.20;;;;;;;1.32;68.14;99357.81;10176601;29;20100;-65
2021/01/12 23:35:30;;;;;;;5.13;1.50;;;;;;;1.15;68.72;99363.97;10177317;29;20048;-65
2021/01/12 23:40:32;;;;;;;5.82;1.50;;;;;;;1.26;67.82;99358.72;10176263;29;20052;-65
2021/01/12 23:45:36;;;;;;;5.28;1.80;;;;;;;1.31;67.61;99349.19;10176161;29;20115;-65